• Join FlightAware (Why Join?)
  • Login
  • US Flag 
11:01PM EDT


 

Airport Tracker/Info


-or-


 

Live Flight TrackerFlight Track Log ✈ WIG7413 ✈ 31-Oct-2013 ✈ KALB - KEWR

Flight Track Log - Related Links

Times and Time Zones

All times are in EDT time to prevent confusion due to time zone crossing. See the WIG7413 flight status page for this flight to view local times or setup timezone preferences in your user account.

Time Position Orientation Groundspeed Altitude Reporting Facility
EDT Latitude Longitude Course Direction KTS MPH feet Rate Location/Type
10:09PM 42.7422 -73.8058 197° South 67 77 1,100  Level Boston Center
10:10PM 42.7306 -73.8106 197° South 57 66 2,200 1,080 Climbing Boston Center
10:11PM 42.7153 -73.8231 211° Southwest 70 81 3,100 900 Climbing Boston Center
10:11PM 42.7156 -73.8233 324° Northwest 65 75 3,200 1,260 Climbing Boston Center
10:12PM 42.6956 -73.8367 206° Southwest 87 100 4,400 1,140 Climbing Boston Center
10:12PM 42.6950 -73.8372 216° Southwest 81 93 4,400 1,260 Level Boston Center
10:13PM 42.6739 -73.8497 204° Southwest 80 92 5,700 1,200 Climbing Boston Center
10:13PM 42.6750 -73.8497 360° North 78 90 5,600 840 Descending Boston Center
10:14PM 42.6572 -73.8636 210° Southwest 74 85 6,600 1,080 Climbing Boston Center
10:14PM 42.6536 -73.8661 207° Southwest 73 84 6,800 960 Climbing Boston Center
10:15PM 42.6378 -73.8783 210° Southwest 73 84 7,600 840 Climbing Boston Center
10:15PM 42.6367 -73.8778 160° South 73 84 7,700 360 Climbing Boston Center
10:16PM 42.6178 -73.8944 213° Southwest 81 93 8,000 360 Climbing Boston Center
10:16PM 42.6164 -73.8942 172° South 84 97 8,100  Climbing Boston Center
10:17PM 42.5911 -73.9147 211° Southwest 105 121 8,000 -120 Descending Boston Center
10:18PM 42.5664 -73.9322 208° Southwest 105 121 7,900 -60 Descending Boston Center
10:19PM 42.5414 -73.9511 209° Southwest 102 117 7,900  Level Boston Center
10:20PM 42.5175 -73.9681 208° Southwest 97 112 7,900  Level Boston Center
10:21PM 42.4944 -73.9869 211° Southwest 97 112 8,000  Climbing Boston Center
10:22PM 42.4653 -74.0094 210° Southwest 109 125 7,900  Descending Boston Center
10:23PM 42.4392 -74.0281 208° Southwest 108 124 8,000  Climbing Boston Center
10:24PM 42.4139 -74.0475 210° Southwest 106 122 7,900  Descending Boston Center
10:25PM 42.3922 -74.0642 210° Southwest 92 106 8,000  Climbing Boston Center
10:26PM 42.3664 -74.0842 210° Southwest 105 121 8,000 -60 Level Boston Center
10:27PM 42.3386 -74.1061 210° Southwest 114 131 7,900 -60 Descending Boston Center
10:28PM 42.3106 -74.1250 206° Southwest 107 123 7,900  Level Boston Center
10:29PM 42.2886 -74.1406 208° Southwest 92 106 8,000  Climbing Boston Center
10:30PM 42.2647 -74.1581 208° Southwest 96 110 8,000 -60 Level Boston Center
10:31PM 42.2406 -74.1756 208° Southwest 98 113 7,900  Descending Boston Center
10:32PM 42.2150 -74.1939 208° Southwest 98 113 8,000  Climbing Boston Center
10:33PM 42.1864 -74.2086 201° Southwest 108 124 7,900  Descending Boston Center
10:34PM 42.1647 -74.2181 198° South 81 93 8,000  Climbing Boston Center
10:35PM 42.1403 -74.2308 201° Southwest 95 109 8,000  Level Boston Center
10:36PM 42.1128 -74.2456 202° Southwest 105 121 8,000  Level Boston Center
10:37PM 42.0839 -74.2600 200° South 110 127 8,000  Level Boston Center
10:38PM 42.0567 -74.2722 198° South 104 120 8,100 -300 Climbing Boston Center
10:39PM 42.0256 -74.2900 203° Southwest 114 131 7,500 -540 Descending Boston Center
10:40PM 41.9944 -74.3053 200° South 119 137 7,100 -300 Descending Boston Center
10:41PM 41.9650 -74.3186 199° South 112 129 7,000  Descending Boston Center
10:42PM 41.9378 -74.3308 198° South 104 120 7,100  Climbing Boston Center
10:43PM 41.9122 -74.3444 202° Southwest 101 116 7,100 -60 Level Boston Center
10:44PM 41.8864 -74.3575 201° Southwest 100 115 7,000  Descending Boston Center
10:45PM 41.8572 -74.3719 200° South 103 119 7,100  Climbing Boston Center
10:46PM 41.8322 -74.3842 200° South 98 113 7,100 -60 Level Boston Center
10:47PM 41.8053 -74.3975 200° South 101 116 7,000 -60 Descending Boston Center
10:48PM 41.7783 -74.4094 198° South 103 119 7,000  Level Boston Center
10:49PM 41.7508 -74.4231 200° South 105 121 7,100  Climbing Boston Center
10:50PM 41.7225 -74.4356 198° South 108 124 7,100  Level Boston Center
10:51PM 41.6939 -74.4494 200° South 109 125 7,100  Level Boston Center
10:52PM 41.6631 -74.4653 201° Southwest 111 128 7,100 -60 Level Boston Center
10:53PM 41.6336 -74.4792 199° South 112 129 7,000  Descending Boston Center
10:54PM 41.6042 -74.4933 200° South 113 130 7,100  Climbing Boston Center
10:55PM 41.5753 -74.5097 203° Southwest 113 130 7,000  Descending Boston Center
10:56PM 41.5464 -74.5233 199° South 111 128 7,100  Climbing Boston Center
10:57PM 41.5175 -74.5372 200° South 111 128 7,100 -300 Level Boston Center
10:58PM 41.4864 -74.5544 203° Southwest 121 139 6,500 -540 Descending Boston Center
10:59PM 41.4514 -74.5733 202° Southwest 126 145 6,100 -300 Descending Boston Center
11:00PM 41.4200 -74.5867 198° South 120 138 6,000 -60 Descending Boston Center
11:01PM 41.3881 -74.6000 197° South 120 138 6,000  Level Boston Center
11:02PM 41.3544 -74.5911 169° South 148 170 6,000  Level Boston Center
11:03PM 41.3206 -74.5528 140° Southeast 161 185 6,000 -120 Level Boston Center
11:04PM 41.2864 -74.5156 141° Southeast 161 185 5,800 -420 Descending Boston Center
11:05PM 41.2483 -74.4783 144° Southeast 169 194 5,200 -600 Descending Boston Center
11:06PM 41.2122 -74.4400 141° Southeast 167 192 4,600 -540 Descending Boston Center
11:07PM 41.1747 -74.4000 141° Southeast 160 184 4,100 -300 Descending Boston Center
11:08PM 41.1419 -74.3661 142° Southeast 151 174 4,100  Level Boston Center
11:09PM 41.1108 -74.3333 142° Southeast 145 167 4,100  Level Boston Center
11:10PM 41.0792 -74.3014 143° Southeast 143 165 4,100  Level Boston Center
11:11PM 41.0469 -74.2678 142° Southeast 145 167 4,100  Level Boston Center
11:12PM 41.0153 -74.2347 142° Southeast 145 167 4,100 -60 Level Boston Center
11:13PM 40.9803 -74.2006 144° Southeast 148 170 4,000  Descending Boston Center
11:14PM 40.9481 -74.1658 141° Southeast 149 171 4,100  Climbing Boston Center
11:15PM 40.9286 -74.1086 114° Southeast 182 209 4,000 -360 Descending Boston Center
11:16PM 40.9164 -74.0436 104° East 184 212 3,500 -420 Descending Boston Center
11:18PM 40.8667 -74.0500 186° South 120 138 3,100 -180 Descending New York TRACON
11:19PM 40.8500 -74.0667 217° Southwest 120 138 3,200 -300 Climbing New York TRACON
11:20PM 40.8167 -74.0833 201° Southwest 130 150 2,600 -660 Descending New York TRACON
11:21PM 40.7833 -74.1000 201° Southwest 127 146 1,900 -720 Descending New York TRACON
11:22PM 40.7500 -74.1333 217° Southwest 139 160 1,300 -780 Descending New York TRACON
11:23PM 40.7167 -74.1500 201° Southwest 149 171 500 -840 Descending New York TRACON
11:24PM 40.6925 -74.1687 192° South  Level Estimated
11:31PM 40.6925 -74.1687 192° South  Level Estimated
11:32PM 40.6925 -74.1687 192° South  Level Estimated